sensor_id;sensor_type;location;lat;lon;timestamp;P1;durP1;ratioP1;P2;durP2;ratioP2
26822;SDS011;14852;51.910;8.878;2024-02-14T00:00:34;5.55;;;2.92;;
26822;SDS011;14852;51.910;8.878;2024-02-14T00:02:59;4.60;;;2.92;;
26822;SDS011;14852;51.910;8.878;2024-02-14T00:05:26;4.65;;;2.97;;
26822;SDS011;14852;51.910;8.878;2024-02-14T00:07:53;5.88;;;4.57;;
26822;SDS011;14852;51.910;8.878;2024-02-14T00:10:19;5.88;;;4.40;;
26822;SDS011;14852;51.910;8.878;2024-02-14T00:12:45;5.80;;;4.40;;
26822;SDS011;14852;51.910;8.878;2024-02-14T00:15:12;5.32;;;3.65;;
26822;SDS011;14852;51.910;8.878;2024-02-14T00:17:38;5.35;;;3.65;;
26822;SDS011;14852;51.910;8.878;2024-02-14T00:20:04;6.85;;;5.13;;
26822;SDS011;14852;51.910;8.878;2024-02-14T00:22:31;5.28;;;3.88;;
26822;SDS011;14852;51.910;8.878;2024-02-14T00:24:56;5.65;;;3.45;;
26822;SDS011;14852;51.910;8.878;2024-02-14T00:27:22;9.43;;;4.63;;
26822;SDS011;14852;51.910;8.878;2024-02-14T00:29:49;4.88;;;3.38;;
26822;SDS011;14852;51.910;8.878;2024-02-14T00:32:15;5.38;;;3.65;;
26822;SDS011;14852;51.910;8.878;2024-02-14T00:34:41;7.28;;;3.30;;
26822;SDS011;14852;51.910;8.878;2024-02-14T00:37:07;5.22;;;3.47;;
26822;SDS011;14852;51.910;8.878;2024-02-14T00:39:33;4.63;;;3.03;;
26822;SDS011;14852;51.910;8.878;2024-02-14T00:41:58;8.85;;;4.18;;
26822;SDS011;14852;51.910;8.878;2024-02-14T00:44:24;4.80;;;2.50;;
26822;SDS011;14852;51.910;8.878;2024-02-14T00:46:55;4.60;;;2.85;;
26822;SDS011;14852;51.910;8.878;2024-02-14T00:49:24;6.40;;;3.35;;
26822;SDS011;14852;51.910;8.878;2024-02-14T00:51:51;4.15;;;2.97;;
26822;SDS011;14852;51.910;8.878;2024-02-14T00:54:16;4.40;;;2.67;;
26822;SDS011;14852;51.910;8.878;2024-02-14T00:56:42;5.63;;;3.50;;
26822;SDS011;14852;51.910;8.878;2024-02-14T00:59:08;6.60;;;3.65;;
26822;SDS011;14852;51.910;8.878;2024-02-14T01:01:34;4.15;;;2.70;;
26822;SDS011;14852;51.910;8.878;2024-02-14T01:04:00;5.00;;;2.85;;
26822;SDS011;14852;51.910;8.878;2024-02-14T01:06:26;3.95;;;2.78;;
26822;SDS011;14852;51.910;8.878;2024-02-14T01:08:52;3.40;;;2.60;;
26822;SDS011;14852;51.910;8.878;2024-02-14T01:11:18;4.05;;;2.67;;
26822;SDS011;14852;51.910;8.878;2024-02-14T01:13:43;5.40;;;2.40;;
26822;SDS011;14852;51.910;8.878;2024-02-14T01:16:09;4.45;;;2.33;;
26822;SDS011;14852;51.910;8.878;2024-02-14T01:18:35;3.67;;;2.45;;
26822;SDS011;14852;51.910;8.878;2024-02-14T01:21:01;3.50;;;2.33;;
26822;SDS011;14852;51.910;8.878;2024-02-14T01:23:27;5.25;;;2.80;;
26822;SDS011;14852;51.910;8.878;2024-02-14T01:25:52;3.90;;;2.33;;
26822;SDS011;14852;51.910;8.878;2024-02-14T01:28:20;3.95;;;1.95;;
26822;SDS011;14852;51.910;8.878;2024-02-14T01:30:46;2.63;;;2.08;;
26822;SDS011;14852;51.910;8.878;2024-02-14T01:33:12;3.60;;;2.00;;
26822;SDS011;14852;51.910;8.878;2024-02-14T01:35:37;2.72;;;2.10;;
26822;SDS011;14852;51.910;8.878;2024-02-14T01:38:04;5.30;;;2.00;;
26822;SDS011;14852;51.910;8.878;2024-02-14T01:40:31;4.68;;;2.35;;
26822;SDS011;14852;51.910;8.878;2024-02-14T01:42:56;6.35;;;2.40;;
26822;SDS011;14852;51.910;8.878;2024-02-14T01:45:22;4.15;;;2.22;;
26822;SDS011;14852;51.910;8.878;2024-02-14T01:47:48;5.25;;;2.28;;
26822;SDS011;14852;51.910;8.878;2024-02-14T01:50:15;3.47;;;2.30;;
26822;SDS011;14852;51.910;8.878;2024-02-14T01:52:43;3.88;;;2.20;;
26822;SDS011;14852;51.910;8.878;2024-02-14T01:55:10;3.38;;;2.60;;
26822;SDS011;14852;51.910;8.878;2024-02-14T01:57:38;3.38;;;2.20;;
26822;SDS011;14852;51.910;8.878;2024-02-14T02:00:05;2.97;;;2.22;;
26822;SDS011;14852;51.910;8.878;2024-02-14T02:02:37;4.25;;;2.15;;
26822;SDS011;14852;51.910;8.878;2024-02-14T02:05:07;2.63;;;1.90;;
26822;SDS011;14852;51.910;8.878;2024-02-14T02:07:33;3.22;;;2.30;;
26822;SDS011;14852;51.910;8.878;2024-02-14T02:09:59;3.65;;;1.85;;
26822;SDS011;14852;51.910;8.878;2024-02-14T02:12:24;3.03;;;1.80;;
26822;SDS011;14852;51.910;8.878;2024-02-14T02:14:52;4.95;;;2.42;;
26822;SDS011;14852;51.910;8.878;2024-02-14T02:17:18;4.70;;;2.20;;
26822;SDS011;14852;51.910;8.878;2024-02-14T02:19:44;2.95;;;2.30;;
26822;SDS011;14852;51.910;8.878;2024-02-14T02:22:10;4.65;;;2.30;;
26822;SDS011;14852;51.910;8.878;2024-02-14T02:24:35;4.07;;;1.80;;
26822;SDS011;14852;51.910;8.878;2024-02-14T02:27:02;3.58;;;2.15;;
26822;SDS011;14852;51.910;8.878;2024-02-14T02:29:29;3.65;;;1.88;;
26822;SDS011;14852;51.910;8.878;2024-02-14T02:31:54;3.53;;;2.25;;
26822;SDS011;14852;51.910;8.878;2024-02-14T02:34:20;4.05;;;2.20;;
26822;SDS011;14852;51.910;8.878;2024-02-14T02:36:46;3.88;;;2.38;;
26822;SDS011;14852;51.910;8.878;2024-02-14T02:39:14;4.10;;;1.80;;
26822;SDS011;14852;51.910;8.878;2024-02-14T02:41:41;3.67;;;2.08;;
26822;SDS011;14852;51.910;8.878;2024-02-14T02:44:06;4.10;;;2.35;;
26822;SDS011;14852;51.910;8.878;2024-02-14T02:46:32;3.78;;;2.10;;
26822;SDS011;14852;51.910;8.878;2024-02-14T02:48:58;3.67;;;2.20;;
26822;SDS011;14852;51.910;8.878;2024-02-14T02:51:24;3.20;;;2.45;;
26822;SDS011;14852;51.910;8.878;2024-02-14T02:53:50;2.13;;;1.80;;
26822;SDS011;14852;51.910;8.878;2024-02-14T02:56:18;4.10;;;2.20;;
26822;SDS011;14852;51.910;8.878;2024-02-14T02:58:45;2.63;;;2.10;;
26822;SDS011;14852;51.910;8.878;2024-02-14T03:01:11;3.75;;;2.60;;
26822;SDS011;14852;51.910;8.878;2024-02-14T03:03:37;3.53;;;1.75;;
26822;SDS011;14852;51.910;8.878;2024-02-14T03:06:04;3.88;;;1.98;;
26822;SDS011;14852;51.910;8.878;2024-02-14T03:08:30;4.03;;;2.53;;
26822;SDS011;14852;51.910;8.878;2024-02-14T03:11:02;3.38;;;2.22;;
26822;SDS011;14852;51.910;8.878;2024-02-14T03:13:31;3.00;;;2.20;;
26822;SDS011;14852;51.910;8.878;2024-02-14T03:15:57;2.95;;;1.80;;
26822;SDS011;14852;51.910;8.878;2024-02-14T03:18:24;2.55;;;1.98;;
26822;SDS011;14852;51.910;8.878;2024-02-14T03:20:50;2.17;;;1.73;;
26822;SDS011;14852;51.910;8.878;2024-02-14T03:23:16;3.90;;;2.30;;
26822;SDS011;14852;51.910;8.878;2024-02-14T03:25:41;5.13;;;2.40;;
26822;SDS011;14852;51.910;8.878;2024-02-14T03:28:07;3.83;;;2.40;;
26822;SDS011;14852;51.910;8.878;2024-02-14T03:30:37;3.60;;;2.10;;
26822;SDS011;14852;51.910;8.878;2024-02-14T03:33:04;2.42;;;1.77;;
26822;SDS011;14852;51.910;8.878;2024-02-14T03:35:32;4.18;;;2.20;;
26822;SDS011;14852;51.910;8.878;2024-02-14T03:37:59;3.15;;;1.98;;
26822;SDS011;14852;51.910;8.878;2024-02-14T03:40:26;3.53;;;2.20;;
26822;SDS011;14852;51.910;8.878;2024-02-14T03:42:55;4.22;;;2.20;;
26822;SDS011;14852;51.910;8.878;2024-02-14T03:45:21;4.18;;;2.05;;
26822;SDS011;14852;51.910;8.878;2024-02-14T03:47:47;2.90;;;1.92;;
26822;SDS011;14852;51.910;8.878;2024-02-14T03:50:13;3.17;;;2.30;;
26822;SDS011;14852;51.910;8.878;2024-02-14T03:52:41;3.58;;;2.22;;
26822;SDS011;14852;51.910;8.878;2024-02-14T03:55:07;3.60;;;2.17;;
26822;SDS011;14852;51.910;8.878;2024-02-14T03:57:38;3.25;;;1.90;;
26822;SDS011;14852;51.910;8.878;2024-02-14T04:00:05;3.97;;;1.90;;
26822;SDS011;14852;51.910;8.878;2024-02-14T04:02:38;4.03;;;1.85;;
26822;SDS011;14852;51.910;8.878;2024-02-14T04:05:04;3.78;;;1.90;;
26822;SDS011;14852;51.910;8.878;2024-02-14T04:07:32;2.80;;;1.85;;
26822;SDS011;14852;51.910;8.878;2024-02-14T04:09:59;2.42;;;1.63;;
26822;SDS011;14852;51.910;8.878;2024-02-14T04:12:25;4.22;;;1.80;;
26822;SDS011;14852;51.910;8.878;2024-02-14T04:14:50;2.20;;;1.52;;
26822;SDS011;14852;51.910;8.878;2024-02-14T04:17:16;2.30;;;1.83;;
26822;SDS011;14852;51.910;8.878;2024-02-14T04:19:42;2.58;;;1.70;;
26822;SDS011;14852;51.910;8.878;2024-02-14T04:22:08;2.70;;;1.42;;
26822;SDS011;14852;51.910;8.878;2024-02-14T04:24:34;1.52;;;1.27;;
26822;SDS011;14852;51.910;8.878;2024-02-14T04:27:00;3.08;;;1.63;;
26822;SDS011;14852;51.910;8.878;2024-02-14T04:29:28;2.70;;;1.90;;
26822;SDS011;14852;51.910;8.878;2024-02-14T04:31:55;2.00;;;1.75;;
26822;SDS011;14852;51.910;8.878;2024-02-14T04:34:21;2.65;;;1.95;;
26822;SDS011;14852;51.910;8.878;2024-02-14T04:36:48;3.13;;;1.77;;
26822;SDS011;14852;51.910;8.878;2024-02-14T04:39:13;2.15;;;1.40;;
26822;SDS011;14852;51.910;8.878;2024-02-14T04:41:39;3.20;;;1.35;;
26822;SDS011;14852;51.910;8.878;2024-02-14T04:44:05;2.35;;;1.60;;
26822;SDS011;14852;51.910;8.878;2024-02-14T04:46:33;2.75;;;1.50;;
26822;SDS011;14852;51.910;8.878;2024-02-14T04:49:00;2.85;;;1.60;;
26822;SDS011;14852;51.910;8.878;2024-02-14T04:51:28;3.10;;;1.60;;
26822;SDS011;14852;51.910;8.878;2024-02-14T04:53:55;2.75;;;1.30;;
26822;SDS011;14852;51.910;8.878;2024-02-14T04:56:23;1.65;;;1.50;;
26822;SDS011;14852;51.910;8.878;2024-02-14T04:58:52;3.65;;;1.92;;
26822;SDS011;14852;51.910;8.878;2024-02-14T05:01:18;3.20;;;2.42;;
26822;SDS011;14852;51.910;8.878;2024-02-14T05:03:44;2.97;;;1.75;;
26822;SDS011;14852;51.910;8.878;2024-02-14T05:06:10;2.85;;;1.65;;
26822;SDS011;14852;51.910;8.878;2024-02-14T05:08:36;9.10;;;1.77;;
26822;SDS011;14852;51.910;8.878;2024-02-14T05:11:01;3.78;;;1.90;;
26822;SDS011;14852;51.910;8.878;2024-02-14T05:13:28;2.25;;;1.60;;
26822;SDS011;14852;51.910;8.878;2024-02-14T05:15:55;4.03;;;2.33;;
26822;SDS011;14852;51.910;8.878;2024-02-14T05:18:21;3.88;;;1.67;;
26822;SDS011;14852;51.910;8.878;2024-02-14T05:20:47;7.20;;;2.28;;
26822;SDS011;14852;51.910;8.878;2024-02-14T05:23:13;1.90;;;1.70;;
26822;SDS011;14852;51.910;8.878;2024-02-14T05:25:38;2.47;;;1.88;;
26822;SDS011;14852;51.910;8.878;2024-02-14T05:28:05;3.13;;;1.67;;
26822;SDS011;14852;51.910;8.878;2024-02-14T05:30:30;2.30;;;1.52;;
26822;SDS011;14852;51.910;8.878;2024-02-14T05:32:57;1.65;;;1.55;;
26822;SDS011;14852;51.910;8.878;2024-02-14T05:35:22;2.85;;;2.00;;
26822;SDS011;14852;51.910;8.878;2024-02-14T05:37:48;2.00;;;1.60;;
26822;SDS011;14852;51.910;8.878;2024-02-14T05:40:15;2.50;;;1.60;;
26822;SDS011;14852;51.910;8.878;2024-02-14T05:42:41;2.30;;;1.63;;
26822;SDS011;14852;51.910;8.878;2024-02-14T05:45:08;3.47;;;1.90;;
26822;SDS011;14852;51.910;8.878;2024-02-14T05:47:35;3.70;;;1.98;;
26822;SDS011;14852;51.910;8.878;2024-02-14T05:50:00;2.60;;;1.90;;
26822;SDS011;14852;51.910;8.878;2024-02-14T05:52:27;2.40;;;2.13;;
26822;SDS011;14852;51.910;8.878;2024-02-14T05:54:52;4.85;;;1.90;;
26822;SDS011;14852;51.910;8.878;2024-02-14T05:57:19;2.13;;;1.73;;
26822;SDS011;14852;51.910;8.878;2024-02-14T05:59:45;3.45;;;2.00;;
26822;SDS011;14852;51.910;8.878;2024-02-14T06:02:10;2.40;;;1.83;;
26822;SDS011;14852;51.910;8.878;2024-02-14T06:04:36;1.95;;;1.70;;
26822;SDS011;14852;51.910;8.878;2024-02-14T06:07:02;2.33;;;1.75;;
26822;SDS011;14852;51.910;8.878;2024-02-14T06:09:30;2.00;;;1.60;;
26822;SDS011;14852;51.910;8.878;2024-02-14T06:12:02;1.92;;;1.70;;
26822;SDS011;14852;51.910;8.878;2024-02-14T06:14:29;2.10;;;1.90;;
26822;SDS011;14852;51.910;8.878;2024-02-14T06:16:56;1.80;;;1.38;;
26822;SDS011;14852;51.910;8.878;2024-02-14T06:19:22;3.95;;;1.70;;
26822;SDS011;14852;51.910;8.878;2024-02-14T06:21:48;4.03;;;1.67;;
26822;SDS011;14852;51.910;8.878;2024-02-14T06:24:14;1.90;;;1.70;;
26822;SDS011;14852;51.910;8.878;2024-02-14T06:26:40;2.25;;;1.40;;
26822;SDS011;14852;51.910;8.878;2024-02-14T06:29:06;1.95;;;1.75;;
26822;SDS011;14852;51.910;8.878;2024-02-14T06:31:32;3.40;;;1.50;;
26822;SDS011;14852;51.910;8.878;2024-02-14T06:33:58;2.58;;;1.80;;
26822;SDS011;14852;51.910;8.878;2024-02-14T06:36:23;2.30;;;1.60;;
26822;SDS011;14852;51.910;8.878;2024-02-14T06:38:49;3.60;;;1.85;;
26822;SDS011;14852;51.910;8.878;2024-02-14T06:41:16;1.45;;;1.30;;
26822;SDS011;14852;51.910;8.878;2024-02-14T06:43:41;1.85;;;1.65;;
26822;SDS011;14852;51.910;8.878;2024-02-14T06:46:07;4.05;;;1.40;;
26822;SDS011;14852;51.910;8.878;2024-02-14T06:48:33;1.63;;;1.52;;
26822;SDS011;14852;51.910;8.878;2024-02-14T06:50:59;1.70;;;1.38;;
26822;SDS011;14852;51.910;8.878;2024-02-14T06:53:32;1.77;;;1.55;;
26822;SDS011;14852;51.910;8.878;2024-02-14T06:56:01;1.80;;;1.38;;
26822;SDS011;14852;51.910;8.878;2024-02-14T06:58:27;1.40;;;1.30;;
26822;SDS011;14852;51.910;8.878;2024-02-14T07:00:56;1.48;;;1.35;;
26822;SDS011;14852;51.910;8.878;2024-02-14T07:03:24;1.30;;;1.20;;
26822;SDS011;14852;51.910;8.878;2024-02-14T07:05:52;2.15;;;1.65;;
26822;SDS011;14852;51.910;8.878;2024-02-14T07:08:18;1.77;;;1.63;;
26822;SDS011;14852;51.910;8.878;2024-02-14T07:10:45;1.88;;;1.67;;
26822;SDS011;14852;51.910;8.878;2024-02-14T07:13:11;1.25;;;1.20;;
26822;SDS011;14852;51.910;8.878;2024-02-14T07:15:37;1.40;;;1.30;;
26822;SDS011;14852;51.910;8.878;2024-02-14T07:18:02;1.50;;;1.40;;
26822;SDS011;14852;51.910;8.878;2024-02-14T07:20:28;1.77;;;1.40;;
26822;SDS011;14852;51.910;8.878;2024-02-14T07:22:55;1.90;;;1.58;;
26822;SDS011;14852;51.910;8.878;2024-02-14T07:25:21;2.85;;;2.35;;
26822;SDS011;14852;51.910;8.878;2024-02-14T07:27:53;2.33;;;2.13;;
26822;SDS011;14852;51.910;8.878;2024-02-14T07:30:19;2.92;;;2.40;;
26822;SDS011;14852;51.910;8.878;2024-02-14T07:32:45;3.70;;;2.30;;
26822;SDS011;14852;51.910;8.878;2024-02-14T07:35:11;2.92;;;2.60;;
26822;SDS011;14852;51.910;8.878;2024-02-14T07:37:38;4.53;;;2.60;;
26822;SDS011;14852;51.910;8.878;2024-02-14T07:40:05;3.10;;;2.58;;
26822;SDS011;14852;51.910;8.878;2024-02-14T07:42:31;3.05;;;2.60;;
26822;SDS011;14852;51.910;8.878;2024-02-14T07:44:57;2.70;;;2.30;;
26822;SDS011;14852;51.910;8.878;2024-02-14T07:47:23;3.42;;;2.65;;
26822;SDS011;14852;51.910;8.878;2024-02-14T07:49:49;3.10;;;2.80;;
26822;SDS011;14852;51.910;8.878;2024-02-14T07:52:18;4.20;;;3.45;;
26822;SDS011;14852;51.910;8.878;2024-02-14T07:54:53;3.88;;;2.85;;
26822;SDS011;14852;51.910;8.878;2024-02-14T07:57:23;3.20;;;2.90;;
26822;SDS011;14852;51.910;8.878;2024-02-14T07:59:52;2.78;;;2.28;;
26822;SDS011;14852;51.910;8.878;2024-02-14T08:02:18;3.20;;;2.90;;
26822;SDS011;14852;51.910;8.878;2024-02-14T08:04:50;3.00;;;2.20;;
26822;SDS011;14852;51.910;8.878;2024-02-14T08:07:16;2.95;;;2.40;;
26822;SDS011;14852;51.910;8.878;2024-02-14T08:09:45;7.10;;;3.33;;
26822;SDS011;14852;51.910;8.878;2024-02-14T08:12:10;4.28;;;3.88;;
26822;SDS011;14852;51.910;8.878;2024-02-14T08:14:39;3.40;;;2.80;;
26822;SDS011;14852;51.910;8.878;2024-02-14T08:17:04;4.78;;;2.85;;
26822;SDS011;14852;51.910;8.878;2024-02-14T08:19:40;3.88;;;2.78;;
26822;SDS011;14852;51.910;8.878;2024-02-14T08:22:06;2.60;;;2.15;;
26822;SDS011;14852;51.910;8.878;2024-02-14T08:24:56;3.10;;;2.78;;
26822;SDS011;14852;51.910;8.878;2024-02-14T08:27:26;3.03;;;2.47;;
26822;SDS011;14852;51.910;8.878;2024-02-14T08:29:53;3.60;;;2.88;;
26822;SDS011;14852;51.910;8.878;2024-02-14T08:32:18;3.20;;;2.63;;
26822;SDS011;14852;51.910;8.878;2024-02-14T08:34:44;4.07;;;2.92;;
26822;SDS011;14852;51.910;8.878;2024-02-14T08:37:13;3.78;;;2.65;;
26822;SDS011;14852;51.910;8.878;2024-02-14T08:39:39;4.13;;;2.85;;
26822;SDS011;14852;51.910;8.878;2024-02-14T08:42:08;4.80;;;3.15;;
26822;SDS011;14852;51.910;8.878;2024-02-14T08:44:34;3.50;;;2.72;;
26822;SDS011;14852;51.910;8.878;2024-02-14T08:47:03;3.60;;;2.83;;
26822;SDS011;14852;51.910;8.878;2024-02-14T08:49:42;3.78;;;2.90;;
26822;SDS011;14852;51.910;8.878;2024-02-14T08:52:25;3.60;;;2.28;;
26822;SDS011;14852;51.910;8.878;2024-02-14T08:54:52;3.20;;;2.90;;
26822;SDS011;14852;51.910;8.878;2024-02-14T08:57:17;3.45;;;2.67;;
26822;SDS011;14852;51.910;8.878;2024-02-14T08:59:44;4.25;;;3.20;;
26822;SDS011;14852;51.910;8.878;2024-02-14T09:02:13;4.57;;;2.47;;
26822;SDS011;14852;51.910;8.878;2024-02-14T09:04:39;2.72;;;2.22;;
26822;SDS011;14852;51.910;8.878;2024-02-14T09:07:06;2.60;;;2.33;;
26822;SDS011;14852;51.910;8.878;2024-02-14T09:09:35;3.97;;;2.30;;
26822;SDS011;14852;51.910;8.878;2024-02-14T09:12:12;2.92;;;2.42;;
26822;SDS011;14852;51.910;8.878;2024-02-14T09:14:38;3.03;;;2.33;;
26822;SDS011;14852;51.910;8.878;2024-02-14T09:17:04;3.42;;;2.75;;
26822;SDS011;14852;51.910;8.878;2024-02-14T09:19:30;3.58;;;2.65;;
26822;SDS011;14852;51.910;8.878;2024-02-14T09:21:55;4.50;;;3.15;;
26822;SDS011;14852;51.910;8.878;2024-02-14T09:24:21;2.95;;;2.35;;
26822;SDS011;14852;51.910;8.878;2024-02-14T09:26:47;2.95;;;2.20;;
26822;SDS011;14852;51.910;8.878;2024-02-14T09:29:12;2.53;;;2.22;;
26822;SDS011;14852;51.910;8.878;2024-02-14T09:31:40;2.90;;;2.67;;
26822;SDS011;14852;51.910;8.878;2024-02-14T09:34:06;2.60;;;2.22;;
26822;SDS011;14852;51.910;8.878;2024-02-14T09:36:33;8.68;;;2.78;;
26822;SDS011;14852;51.910;8.878;2024-02-14T09:38:58;2.53;;;2.25;;
26822;SDS011;14852;51.910;8.878;2024-02-14T09:41:25;2.85;;;2.60;;
26822;SDS011;14852;51.910;8.878;2024-02-14T09:44:01;2.40;;;2.20;;
26822;SDS011;14852;51.910;8.878;2024-02-14T09:46:28;3.80;;;2.30;;
26822;SDS011;14852;51.910;8.878;2024-02-14T09:48:55;2.53;;;2.33;;
26822;SDS011;14852;51.910;8.878;2024-02-14T09:51:24;3.03;;;2.40;;
26822;SDS011;14852;51.910;8.878;2024-02-14T09:53:50;3.30;;;2.72;;
26822;SDS011;14852;51.910;8.878;2024-02-14T09:56:19;2.78;;;2.50;;
26822;SDS011;14852;51.910;8.878;2024-02-14T09:58:48;2.97;;;2.55;;
26822;SDS011;14852;51.910;8.878;2024-02-14T10:01:20;2.88;;;2.55;;
26822;SDS011;14852;51.910;8.878;2024-02-14T10:03:50;3.53;;;2.78;;
26822;SDS011;14852;51.910;8.878;2024-02-14T10:06:17;2.83;;;2.50;;
26822;SDS011;14852;51.910;8.878;2024-02-14T10:08:50;3.13;;;2.83;;
26822;SDS011;14852;51.910;8.878;2024-02-14T10:11:16;2.88;;;2.13;;
26822;SDS011;14852;51.910;8.878;2024-02-14T10:13:46;3.45;;;2.58;;
26822;SDS011;14852;51.910;8.878;2024-02-14T10:16:13;3.33;;;2.30;;
26822;SDS011;14852;51.910;8.878;2024-02-14T10:18:39;4.38;;;2.42;;
26822;SDS011;14852;51.910;8.878;2024-02-14T10:21:06;2.72;;;2.53;;
26822;SDS011;14852;51.910;8.878;2024-02-14T10:23:33;2.40;;;2.20;;
26822;SDS011;14852;51.910;8.878;2024-02-14T10:25:59;4.28;;;2.80;;
26822;SDS011;14852;51.910;8.878;2024-02-14T10:28:25;4.22;;;2.78;;
26822;SDS011;14852;51.910;8.878;2024-02-14T10:30:51;3.10;;;2.55;;
26822;SDS011;14852;51.910;8.878;2024-02-14T10:33:19;3.83;;;2.88;;
26822;SDS011;14852;51.910;8.878;2024-02-14T10:35:47;3.05;;;2.70;;
26822;SDS011;14852;51.910;8.878;2024-02-14T10:38:17;2.88;;;2.42;;
26822;SDS011;14852;51.910;8.878;2024-02-14T10:40:46;4.07;;;2.90;;
26822;SDS011;14852;51.910;8.878;2024-02-14T10:43:12;2.95;;;2.70;;
26822;SDS011;14852;51.910;8.878;2024-02-14T10:45:38;3.28;;;2.70;;
26822;SDS011;14852;51.910;8.878;2024-02-14T10:48:05;5.03;;;2.92;;
26822;SDS011;14852;51.910;8.878;2024-02-14T10:50:34;2.58;;;2.38;;
26822;SDS011;14852;51.910;8.878;2024-02-14T10:53:04;3.20;;;2.90;;
26822;SDS011;14852;51.910;8.878;2024-02-14T10:55:32;3.65;;;3.35;;
26822;SDS011;14852;51.910;8.878;2024-02-14T10:57:59;4.15;;;3.20;;
26822;SDS011;14852;51.910;8.878;2024-02-14T11:00:26;2.88;;;2.60;;
26822;SDS011;14852;51.910;8.878;2024-02-14T11:02:53;2.92;;;2.58;;
26822;SDS011;14852;51.910;8.878;2024-02-14T11:05:19;3.72;;;2.53;;
26822;SDS011;14852;51.910;8.878;2024-02-14T11:07:49;3.15;;;2.83;;
26822;SDS011;14852;51.910;8.878;2024-02-14T11:10:18;2.50;;;2.30;;
26822;SDS011;14852;51.910;8.878;2024-02-14T11:12:46;2.80;;;2.40;;
26822;SDS011;14852;51.910;8.878;2024-02-14T11:15:17;3.22;;;2.55;;
26822;SDS011;14852;51.910;8.878;2024-02-14T11:17:43;3.42;;;3.00;;
26822;SDS011;14852;51.910;8.878;2024-02-14T11:20:14;3.92;;;3.10;;
26822;SDS011;14852;51.910;8.878;2024-02-14T11:22:49;4.13;;;2.90;;
26822;SDS011;14852;51.910;8.878;2024-02-14T11:25:36;3.22;;;2.92;;
26822;SDS011;14852;51.910;8.878;2024-02-14T11:28:12;2.85;;;2.65;;
26822;SDS011;14852;51.910;8.878;2024-02-14T11:30:40;3.08;;;2.78;;
26822;SDS011;14852;51.910;8.878;2024-02-14T11:33:21;4.15;;;2.80;;
26822;SDS011;14852;51.910;8.878;2024-02-14T11:35:50;3.25;;;2.95;;
26822;SDS011;14852;51.910;8.878;2024-02-14T11:38:18;5.05;;;3.10;;
26822;SDS011;14852;51.910;8.878;2024-02-14T11:40:50;4.82;;;3.47;;
26822;SDS011;14852;51.910;8.878;2024-02-14T11:43:22;4.80;;;2.78;;
26822;SDS011;14852;51.910;8.878;2024-02-14T11:45:50;4.18;;;2.90;;
26822;SDS011;14852;51.910;8.878;2024-02-14T11:48:17;2.88;;;2.53;;
26822;SDS011;14852;51.910;8.878;2024-02-14T11:50:48;2.90;;;2.67;;
26822;SDS011;14852;51.910;8.878;2024-02-14T11:53:16;3.35;;;2.88;;
26822;SDS011;14852;51.910;8.878;2024-02-14T11:55:43;2.30;;;2.08;;
26822;SDS011;14852;51.910;8.878;2024-02-14T11:58:12;3.85;;;2.70;;
26822;SDS011;14852;51.910;8.878;2024-02-14T12:03:06;3.22;;;2.88;;
26822;SDS011;14852;51.910;8.878;2024-02-14T12:05:36;2.78;;;2.50;;
26822;SDS011;14852;51.910;8.878;2024-02-14T12:08:03;2.47;;;2.10;;
26822;SDS011;14852;51.910;8.878;2024-02-14T12:10:31;2.90;;;2.20;;
26822;SDS011;14852;51.910;8.878;2024-02-14T12:12:57;2.78;;;2.38;;
26822;SDS011;14852;51.910;8.878;2024-02-14T12:15:29;5.22;;;3.00;;
26822;SDS011;14852;51.910;8.878;2024-02-14T12:17:55;3.28;;;2.85;;
26822;SDS011;14852;51.910;8.878;2024-02-14T12:20:22;3.10;;;2.38;;
26822;SDS011;14852;51.910;8.878;2024-02-14T12:22:51;2.00;;;1.80;;
26822;SDS011;14852;51.910;8.878;2024-02-14T12:25:17;2.25;;;2.05;;
26822;SDS011;14852;51.910;8.878;2024-02-14T12:27:49;3.42;;;2.30;;
26822;SDS011;14852;51.910;8.878;2024-02-14T12:30:16;2.17;;;1.98;;
26822;SDS011;14852;51.910;8.878;2024-02-14T12:32:44;2.30;;;2.10;;
26822;SDS011;14852;51.910;8.878;2024-02-14T12:35:10;3.67;;;2.13;;
26822;SDS011;14852;51.910;8.878;2024-02-14T12:37:36;2.22;;;2.03;;
26822;SDS011;14852;51.910;8.878;2024-02-14T12:40:01;2.42;;;1.77;;
26822;SDS011;14852;51.910;8.878;2024-02-14T12:42:27;2.10;;;1.80;;
26822;SDS011;14852;51.910;8.878;2024-02-14T12:44:56;3.25;;;1.95;;
26822;SDS011;14852;51.910;8.878;2024-02-14T12:47:22;2.92;;;2.60;;
26822;SDS011;14852;51.910;8.878;2024-02-14T12:49:49;2.33;;;2.13;;
26822;SDS011;14852;51.910;8.878;2024-02-14T12:52:14;3.92;;;2.20;;
26822;SDS011;14852;51.910;8.878;2024-02-14T12:54:40;2.00;;;1.80;;
26822;SDS011;14852;51.910;8.878;2024-02-14T12:57:06;3.08;;;2.13;;
26822;SDS011;14852;51.910;8.878;2024-02-14T12:59:32;2.17;;;1.98;;
26822;SDS011;14852;51.910;8.878;2024-02-14T13:01:57;2.20;;;1.90;;
26822;SDS011;14852;51.910;8.878;2024-02-14T13:04:23;2.60;;;1.98;;
26822;SDS011;14852;51.910;8.878;2024-02-14T13:06:49;1.50;;;1.40;;
26822;SDS011;14852;51.910;8.878;2024-02-14T13:09:15;1.30;;;1.20;;
26822;SDS011;14852;51.910;8.878;2024-02-14T13:11:41;1.70;;;1.60;;
26822;SDS011;14852;51.910;8.878;2024-02-14T13:14:07;1.42;;;1.25;;
26822;SDS011;14852;51.910;8.878;2024-02-14T13:16:34;1.35;;;1.25;;
26822;SDS011;14852;51.910;8.878;2024-02-14T13:19:00;1.60;;;1.50;;
26822;SDS011;14852;51.910;8.878;2024-02-14T13:21:26;1.95;;;1.80;;
26822;SDS011;14852;51.910;8.878;2024-02-14T13:23:51;1.80;;;1.70;;
26822;SDS011;14852;51.910;8.878;2024-02-14T13:26:17;2.28;;;2.08;;
26822;SDS011;14852;51.910;8.878;2024-02-14T13:28:43;1.55;;;1.45;;
26822;SDS011;14852;51.910;8.878;2024-02-14T13:31:09;1.92;;;1.65;;
26822;SDS011;14852;51.910;8.878;2024-02-14T13:33:35;1.88;;;1.77;;
26822;SDS011;14852;51.910;8.878;2024-02-14T13:36:01;2.42;;;1.75;;
26822;SDS011;14852;51.910;8.878;2024-02-14T13:38:28;3.17;;;2.35;;
26822;SDS011;14852;51.910;8.878;2024-02-14T13:40:55;2.45;;;1.92;;
26822;SDS011;14852;51.910;8.878;2024-02-14T13:43:20;2.50;;;2.28;;
26822;SDS011;14852;51.910;8.878;2024-02-14T13:45:46;2.92;;;2.20;;
26822;SDS011;14852;51.910;8.878;2024-02-14T13:48:14;2.85;;;2.47;;
26822;SDS011;14852;51.910;8.878;2024-02-14T13:50:40;3.90;;;3.00;;
26822;SDS011;14852;51.910;8.878;2024-02-14T13:53:07;2.65;;;2.45;;
26822;SDS011;14852;51.910;8.878;2024-02-14T13:55:33;2.63;;;2.42;;
26822;SDS011;14852;51.910;8.878;2024-02-14T13:57:59;2.58;;;2.38;;
26822;SDS011;14852;51.910;8.878;2024-02-14T14:00:25;3.05;;;2.75;;
26822;SDS011;14852;51.910;8.878;2024-02-14T14:02:51;2.65;;;2.40;;
26822;SDS011;14852;51.910;8.878;2024-02-14T14:05:16;3.03;;;2.72;;
26822;SDS011;14852;51.910;8.878;2024-02-14T14:07:42;2.58;;;2.30;;
26822;SDS011;14852;51.910;8.878;2024-02-14T14:10:08;2.63;;;2.42;;
26822;SDS011;14852;51.910;8.878;2024-02-14T14:12:34;3.00;;;2.38;;
26822;SDS011;14852;51.910;8.878;2024-02-14T14:15:01;2.40;;;2.20;;
26822;SDS011;14852;51.910;8.878;2024-02-14T14:17:27;2.38;;;2.17;;
26822;SDS011;14852;51.910;8.878;2024-02-14T14:19:53;2.95;;;2.65;;
26822;SDS011;14852;51.910;8.878;2024-02-14T14:22:19;2.22;;;2.03;;
26822;SDS011;14852;51.910;8.878;2024-02-14T14:24:46;2.80;;;2.35;;
26822;SDS011;14852;51.910;8.878;2024-02-14T14:27:12;2.42;;;2.22;;
26822;SDS011;14852;51.910;8.878;2024-02-14T14:29:41;2.80;;;2.58;;
26822;SDS011;14852;51.910;8.878;2024-02-14T14:32:08;4.05;;;2.80;;
26822;SDS011;14852;51.910;8.878;2024-02-14T14:34:37;2.90;;;2.60;;
26822;SDS011;14852;51.910;8.878;2024-02-14T14:37:02;2.80;;;2.38;;
26822;SDS011;14852;51.910;8.878;2024-02-14T14:39:28;3.47;;;3.17;;
26822;SDS011;14852;51.910;8.878;2024-02-14T14:41:56;3.42;;;2.33;;
26822;SDS011;14852;51.910;8.878;2024-02-14T14:44:26;2.50;;;2.20;;
26822;SDS011;14852;51.910;8.878;2024-02-14T14:46:52;2.53;;;2.30;;
26822;SDS011;14852;51.910;8.878;2024-02-14T14:49:18;4.45;;;2.63;;